sensor_id;sensor_type;location;lat;lon;timestamp;P1;durP1;ratioP1;P2;durP2;ratioP2
32523;SDS011;18965;52.242;20.886;2023-05-27T00:00:12;306.10;;;88.13;;
32523;SDS011;18965;52.242;20.886;2023-05-27T00:02:39;303.67;;;86.18;;
32523;SDS011;18965;52.242;20.886;2023-05-27T00:05:06;295.73;;;86.30;;
32523;SDS011;18965;52.242;20.886;2023-05-27T00:08:55;264.07;;;85.50;;
32523;SDS011;18965;52.242;20.886;2023-05-27T00:11:22;265.20;;;85.05;;
32523;SDS011;18965;52.242;20.886;2023-05-27T00:13:48;257.45;;;84.18;;
32523;SDS011;18965;52.242;20.886;2023-05-27T00:16:15;257.45;;;84.88;;
32523;SDS011;18965;52.242;20.886;2023-05-27T00:18:42;265.35;;;86.75;;
32523;SDS011;18965;52.242;20.886;2023-05-27T00:24:31;255.10;;;83.40;;
32523;SDS011;18965;52.242;20.886;2023-05-27T00:27:02;255.05;;;84.07;;
32523;SDS011;18965;52.242;20.886;2023-05-27T00:29:28;255.70;;;83.70;;
32523;SDS011;18965;52.242;20.886;2023-05-27T00:31:54;257.38;;;84.03;;
32523;SDS011;18965;52.242;20.886;2023-05-27T00:34:20;270.98;;;87.70;;
32523;SDS011;18965;52.242;20.886;2023-05-27T00:36:47;261.05;;;85.13;;
32523;SDS011;18965;52.242;20.886;2023-05-27T00:39:13;268.77;;;84.95;;
32523;SDS011;18965;52.242;20.886;2023-05-27T00:41:40;269.48;;;85.20;;
32523;SDS011;18965;52.242;20.886;2023-05-27T00:44:13;275.20;;;84.75;;
32523;SDS011;18965;52.242;20.886;2023-05-27T00:46:40;279.90;;;85.45;;
32523;SDS011;18965;52.242;20.886;2023-05-27T00:49:06;283.20;;;86.47;;
32523;SDS011;18965;52.242;20.886;2023-05-27T00:51:33;291.85;;;87.22;;
32523;SDS011;18965;52.242;20.886;2023-05-27T00:54:00;308.27;;;87.93;;
32523;SDS011;18965;52.242;20.886;2023-05-27T00:56:26;293.88;;;85.72;;
32523;SDS011;18965;52.242;20.886;2023-05-27T00:58:53;277.83;;;84.60;;
32523;SDS011;18965;52.242;20.886;2023-05-27T01:01:19;282.75;;;86.43;;
32523;SDS011;18965;52.242;20.886;2023-05-27T01:03:46;288.38;;;86.03;;
32523;SDS011;18965;52.242;20.886;2023-05-27T01:11:38;278.50;;;82.82;;
32523;SDS011;18965;52.242;20.886;2023-05-27T01:14:13;285.08;;;86.07;;
32523;SDS011;18965;52.242;20.886;2023-05-27T01:16:43;284.92;;;84.13;;
32523;SDS011;18965;52.242;20.886;2023-05-27T01:19:13;283.17;;;84.28;;
32523;SDS011;18965;52.242;20.886;2023-05-27T01:21:45;294.52;;;86.28;;
32523;SDS011;18965;52.242;20.886;2023-05-27T01:24:16;290.80;;;84.95;;
32523;SDS011;18965;52.242;20.886;2023-05-27T01:26:42;291.05;;;83.20;;
32523;SDS011;18965;52.242;20.886;2023-05-27T01:29:09;293.55;;;83.40;;
32523;SDS011;18965;52.242;20.886;2023-05-27T01:31:43;298.08;;;87.13;;
32523;SDS011;18965;52.242;20.886;2023-05-27T01:37:02;287.73;;;85.05;;
32523;SDS011;18965;52.242;20.886;2023-05-27T01:39:31;294.00;;;83.07;;
32523;SDS011;18965;52.242;20.886;2023-05-27T01:41:59;298.33;;;84.80;;
32523;SDS011;18965;52.242;20.886;2023-05-27T01:44:29;297.08;;;83.60;;
32523;SDS011;18965;52.242;20.886;2023-05-27T01:47:00;297.00;;;83.40;;
32523;SDS011;18965;52.242;20.886;2023-05-27T01:49:27;297.30;;;84.10;;
32523;SDS011;18965;52.242;20.886;2023-05-27T01:51:54;295.02;;;83.72;;
32523;SDS011;18965;52.242;20.886;2023-05-27T01:54:21;291.65;;;82.13;;
32523;SDS011;18965;52.242;20.886;2023-05-27T01:56:47;296.73;;;83.70;;
32523;SDS011;18965;52.242;20.886;2023-05-27T01:59:13;296.45;;;83.85;;
32523;SDS011;18965;52.242;20.886;2023-05-27T02:01:40;295.45;;;85.03;;
32523;SDS011;18965;52.242;20.886;2023-05-27T02:04:07;296.77;;;83.03;;
32523;SDS011;18965;52.242;20.886;2023-05-27T02:06:33;294.83;;;83.78;;
32523;SDS011;18965;52.242;20.886;2023-05-27T02:09:01;294.92;;;84.18;;
32523;SDS011;18965;52.242;20.886;2023-05-27T02:11:28;292.10;;;82.38;;
32523;SDS011;18965;52.242;20.886;2023-05-27T02:13:54;293.02;;;82.95;;
32523;SDS011;18965;52.242;20.886;2023-05-27T02:19:17;322.58;;;87.35;;
32523;SDS011;18965;52.242;20.886;2023-05-27T02:21:45;295.10;;;82.88;;
32523;SDS011;18965;52.242;20.886;2023-05-27T02:24:11;292.95;;;81.70;;
32523;SDS011;18965;52.242;20.886;2023-05-27T02:26:37;291.77;;;81.85;;
32523;SDS011;18965;52.242;20.886;2023-05-27T02:29:02;311.67;;;85.88;;
32523;SDS011;18965;52.242;20.886;2023-05-27T02:31:28;289.40;;;82.55;;
32523;SDS011;18965;52.242;20.886;2023-05-27T02:33:54;302.60;;;84.07;;
32523;SDS011;18965;52.242;20.886;2023-05-27T02:36:20;305.10;;;84.93;;
32523;SDS011;18965;52.242;20.886;2023-05-27T02:38:46;308.80;;;85.55;;
32523;SDS011;18965;52.242;20.886;2023-05-27T02:41:12;297.95;;;84.45;;
32523;SDS011;18965;52.242;20.886;2023-05-27T02:43:37;299.25;;;84.65;;
32523;SDS011;18965;52.242;20.886;2023-05-27T02:46:03;298.38;;;85.70;;
32523;SDS011;18965;52.242;20.886;2023-05-27T02:48:29;326.17;;;86.53;;
32523;SDS011;18965;52.242;20.886;2023-05-27T02:50:54;295.88;;;83.10;;
32523;SDS011;18965;52.242;20.886;2023-05-27T02:53:20;298.95;;;84.43;;
32523;SDS011;18965;52.242;20.886;2023-05-27T02:55:46;297.27;;;84.00;;
32523;SDS011;18965;52.242;20.886;2023-05-27T02:58:11;313.05;;;85.32;;
32523;SDS011;18965;52.242;20.886;2023-05-27T03:00:37;308.65;;;84.53;;
32523;SDS011;18965;52.242;20.886;2023-05-27T03:03:03;312.80;;;85.53;;
32523;SDS011;18965;52.242;20.886;2023-05-27T03:05:32;300.75;;;84.47;;
32523;SDS011;18965;52.242;20.886;2023-05-27T03:07:58;308.45;;;85.28;;
32523;SDS011;18965;52.242;20.886;2023-05-27T03:10:25;298.27;;;83.57;;
32523;SDS011;18965;52.242;20.886;2023-05-27T03:12:51;314.23;;;87.22;;
32523;SDS011;18965;52.242;20.886;2023-05-27T03:15:18;304.42;;;86.43;;
32523;SDS011;18965;52.242;20.886;2023-05-27T03:17:46;303.63;;;85.47;;
32523;SDS011;18965;52.242;20.886;2023-05-27T03:20:12;296.20;;;82.30;;
32523;SDS011;18965;52.242;20.886;2023-05-27T03:22:38;332.65;;;94.35;;
32523;SDS011;18965;52.242;20.886;2023-05-27T03:25:04;323.77;;;88.50;;
32523;SDS011;18965;52.242;20.886;2023-05-27T03:27:31;300.15;;;83.95;;
32523;SDS011;18965;52.242;20.886;2023-05-27T03:29:57;308.95;;;86.13;;
32523;SDS011;18965;52.242;20.886;2023-05-27T03:32:22;309.70;;;87.35;;
32523;SDS011;18965;52.242;20.886;2023-05-27T03:34:49;296.65;;;83.25;;
32523;SDS011;18965;52.242;20.886;2023-05-27T03:37:15;316.77;;;87.22;;
32523;SDS011;18965;52.242;20.886;2023-05-27T03:39:40;308.30;;;87.63;;
32523;SDS011;18965;52.242;20.886;2023-05-27T03:42:06;317.25;;;86.93;;
32523;SDS011;18965;52.242;20.886;2023-05-27T03:44:32;305.15;;;87.03;;
32523;SDS011;18965;52.242;20.886;2023-05-27T03:46:58;297.20;;;84.45;;
32523;SDS011;18965;52.242;20.886;2023-05-27T03:49:26;303.92;;;84.47;;
32523;SDS011;18965;52.242;20.886;2023-05-27T03:51:52;298.98;;;83.43;;
32523;SDS011;18965;52.242;20.886;2023-05-27T03:54:17;306.45;;;87.68;;
32523;SDS011;18965;52.242;20.886;2023-05-27T03:56:43;330.55;;;89.43;;
32523;SDS011;18965;52.242;20.886;2023-05-27T03:59:09;304.05;;;87.32;;
32523;SDS011;18965;52.242;20.886;2023-05-27T04:01:34;307.27;;;85.53;;
32523;SDS011;18965;52.242;20.886;2023-05-27T04:04:00;308.38;;;86.07;;
32523;SDS011;18965;52.242;20.886;2023-05-27T04:06:26;305.17;;;86.32;;
32523;SDS011;18965;52.242;20.886;2023-05-27T04:08:52;300.33;;;86.45;;
32523;SDS011;18965;52.242;20.886;2023-05-27T04:11:17;309.13;;;86.95;;
32523;SDS011;18965;52.242;20.886;2023-05-27T04:13:43;312.73;;;87.07;;
32523;SDS011;18965;52.242;20.886;2023-05-27T04:16:10;302.23;;;85.80;;
32523;SDS011;18965;52.242;20.886;2023-05-27T04:18:36;306.75;;;88.22;;
32523;SDS011;18965;52.242;20.886;2023-05-27T04:21:02;305.45;;;87.00;;
32523;SDS011;18965;52.242;20.886;2023-05-27T04:23:27;304.50;;;86.28;;
32523;SDS011;18965;52.242;20.886;2023-05-27T04:25:53;303.60;;;86.30;;
32523;SDS011;18965;52.242;20.886;2023-05-27T04:28:19;296.63;;;83.78;;
32523;SDS011;18965;52.242;20.886;2023-05-27T04:30:45;303.60;;;86.60;;
32523;SDS011;18965;52.242;20.886;2023-05-27T04:33:14;309.65;;;91.00;;
32523;SDS011;18965;52.242;20.886;2023-05-27T04:35:40;307.60;;;87.55;;
32523;SDS011;18965;52.242;20.886;2023-05-27T04:38:09;303.30;;;87.82;;
32523;SDS011;18965;52.242;20.886;2023-05-27T04:40:41;315.95;;;89.47;;
32523;SDS011;18965;52.242;20.886;2023-05-27T04:43:07;316.73;;;91.57;;
32523;SDS011;18965;52.242;20.886;2023-05-27T04:45:33;313.45;;;89.28;;
32523;SDS011;18965;52.242;20.886;2023-05-27T04:47:59;335.92;;;91.05;;
32523;SDS011;18965;52.242;20.886;2023-05-27T04:50:26;309.80;;;89.80;;
32523;SDS011;18965;52.242;20.886;2023-05-27T04:52:52;310.65;;;91.78;;
32523;SDS011;18965;52.242;20.886;2023-05-27T04:55:18;275.45;;;88.70;;
32523;SDS011;18965;52.242;20.886;2023-05-27T04:57:44;280.60;;;89.95;;
32523;SDS011;18965;52.242;20.886;2023-05-27T05:00:10;282.05;;;89.32;;
32523;SDS011;18965;52.242;20.886;2023-05-27T05:02:36;285.60;;;91.30;;
32523;SDS011;18965;52.242;20.886;2023-05-27T05:05:05;295.33;;;93.28;;
32523;SDS011;18965;52.242;20.886;2023-05-27T05:07:35;299.65;;;92.28;;
32523;SDS011;18965;52.242;20.886;2023-05-27T05:10:09;279.80;;;91.72;;
32523;SDS011;18965;52.242;20.886;2023-05-27T05:12:36;239.75;;;88.43;;
32523;SDS011;18965;52.242;20.886;2023-05-27T05:15:02;209.25;;;84.03;;
32523;SDS011;18965;52.242;20.886;2023-05-27T05:17:30;202.35;;;81.88;;
32523;SDS011;18965;52.242;20.886;2023-05-27T05:19:56;217.68;;;85.50;;
32523;SDS011;18965;52.242;20.886;2023-05-27T05:22:22;210.75;;;84.82;;
32523;SDS011;18965;52.242;20.886;2023-05-27T05:24:48;193.55;;;82.32;;
32523;SDS011;18965;52.242;20.886;2023-05-27T05:27:15;187.35;;;80.70;;
32523;SDS011;18965;52.242;20.886;2023-05-27T05:29:41;25.33;;;4.45;;
32523;SDS011;18965;52.242;20.886;2023-05-27T05:32:07;53.10;;;6.68;;
32523;SDS011;18965;52.242;20.886;2023-05-27T05:34:36;33.33;;;6.00;;
32523;SDS011;18965;52.242;20.886;2023-05-27T05:37:02;57.33;;;7.78;;
32523;SDS011;18965;52.242;20.886;2023-05-27T05:39:28;21.98;;;5.38;;
32523;SDS011;18965;52.242;20.886;2023-05-27T05:41:53;17.95;;;3.47;;
32523;SDS011;18965;52.242;20.886;2023-05-27T05:44:19;21.20;;;6.32;;
32523;SDS011;18965;52.242;20.886;2023-05-27T05:46:45;29.80;;;4.15;;
32523;SDS011;18965;52.242;20.886;2023-05-27T05:49:11;26.30;;;4.60;;
32523;SDS011;18965;52.242;20.886;2023-05-27T05:51:36;20.55;;;3.92;;
32523;SDS011;18965;52.242;20.886;2023-05-27T05:54:02;235.45;;;91.88;;
32523;SDS011;18965;52.242;20.886;2023-05-27T05:56:28;163.57;;;80.95;;
32523;SDS011;18965;52.242;20.886;2023-05-27T05:58:54;188.27;;;81.88;;
32523;SDS011;18965;52.242;20.886;2023-05-27T06:01:20;111.22;;;70.70;;
32523;SDS011;18965;52.242;20.886;2023-05-27T06:03:45;120.95;;;68.10;;
32523;SDS011;18965;52.242;20.886;2023-05-27T06:06:13;87.28;;;52.75;;
32523;SDS011;18965;52.242;20.886;2023-05-27T06:08:40;68.88;;;43.00;;
32523;SDS011;18965;52.242;20.886;2023-05-27T06:11:06;39.00;;;33.10;;
32523;SDS011;18965;52.242;20.886;2023-05-27T06:13:31;45.33;;;34.88;;
32523;SDS011;18965;52.242;20.886;2023-05-27T06:15:57;43.10;;;25.40;;
32523;SDS011;18965;52.242;20.886;2023-05-27T06:18:23;34.92;;;22.10;;
32523;SDS011;18965;52.242;20.886;2023-05-27T06:20:50;43.30;;;32.05;;
32523;SDS011;18965;52.242;20.886;2023-05-27T06:23:15;16.77;;;3.78;;
32523;SDS011;18965;52.242;20.886;2023-05-27T06:25:41;29.05;;;4.60;;
32523;SDS011;18965;52.242;20.886;2023-05-27T06:28:07;23.67;;;4.75;;
32523;SDS011;18965;52.242;20.886;2023-05-27T06:30:32;25.17;;;3.88;;
32523;SDS011;18965;52.242;20.886;2023-05-27T06:32:58;34.72;;;4.93;;
32523;SDS011;18965;52.242;20.886;2023-05-27T06:35:24;12.52;;;2.78;;
32523;SDS011;18965;52.242;20.886;2023-05-27T06:37:50;18.45;;;3.08;;
32523;SDS011;18965;52.242;20.886;2023-05-27T06:40:19;9.57;;;2.33;;
32523;SDS011;18965;52.242;20.886;2023-05-27T06:42:44;14.52;;;2.88;;
32523;SDS011;18965;52.242;20.886;2023-05-27T06:45:10;33.22;;;4.53;;
32523;SDS011;18965;52.242;20.886;2023-05-27T06:47:36;12.05;;;2.72;;
32523;SDS011;18965;52.242;20.886;2023-05-27T06:50:03;20.13;;;3.78;;
32523;SDS011;18965;52.242;20.886;2023-05-27T06:52:29;12.75;;;2.63;;
32523;SDS011;18965;52.242;20.886;2023-05-27T06:54:55;36.33;;;5.10;;
32523;SDS011;18965;52.242;20.886;2023-05-27T06:57:23;103.50;;;11.98;;
32523;SDS011;18965;52.242;20.886;2023-05-27T06:59:51;47.95;;;6.13;;
32523;SDS011;18965;52.242;20.886;2023-05-27T07:02:17;36.28;;;5.28;;
32523;SDS011;18965;52.242;20.886;2023-05-27T07:04:43;30.08;;;4.88;;
32523;SDS011;18965;52.242;20.886;2023-05-27T07:07:09;48.95;;;6.90;;
32523;SDS011;18965;52.242;20.886;2023-05-27T07:09:34;38.63;;;5.85;;
32523;SDS011;18965;52.242;20.886;2023-05-27T07:12:03;50.58;;;6.97;;
32523;SDS011;18965;52.242;20.886;2023-05-27T07:14:31;62.47;;;8.68;;
32523;SDS011;18965;52.242;20.886;2023-05-27T07:16:57;27.50;;;5.03;;
32523;SDS011;18965;52.242;20.886;2023-05-27T07:19:22;15.80;;;3.40;;
32523;SDS011;18965;52.242;20.886;2023-05-27T07:21:48;113.03;;;14.38;;
32523;SDS011;18965;52.242;20.886;2023-05-27T07:24:14;45.40;;;6.78;;
32523;SDS011;18965;52.242;20.886;2023-05-27T07:26:40;20.23;;;5.30;;
32523;SDS011;18965;52.242;20.886;2023-05-27T07:29:06;23.13;;;4.45;;
32523;SDS011;18965;52.242;20.886;2023-05-27T07:31:32;26.73;;;5.18;;
32523;SDS011;18965;52.242;20.886;2023-05-27T07:33:57;51.28;;;6.90;;
32523;SDS011;18965;52.242;20.886;2023-05-27T07:36:23;25.45;;;4.65;;
32523;SDS011;18965;52.242;20.886;2023-05-27T07:38:49;35.35;;;5.45;;
32523;SDS011;18965;52.242;20.886;2023-05-27T07:41:18;24.92;;;4.45;;
32523;SDS011;18965;52.242;20.886;2023-05-27T07:43:44;24.63;;;4.80;;
32523;SDS011;18965;52.242;20.886;2023-05-27T07:46:10;34.03;;;4.93;;
32523;SDS011;18965;52.242;20.886;2023-05-27T07:48:35;39.78;;;5.72;;
32523;SDS011;18965;52.242;20.886;2023-05-27T07:51:01;24.02;;;4.07;;
32523;SDS011;18965;52.242;20.886;2023-05-27T07:53:28;27.15;;;5.00;;
32523;SDS011;18965;52.242;20.886;2023-05-27T07:55:54;32.85;;;5.45;;
32523;SDS011;18965;52.242;20.886;2023-05-27T07:58:19;30.17;;;5.43;;
32523;SDS011;18965;52.242;20.886;2023-05-27T08:00:45;24.48;;;4.65;;
32523;SDS011;18965;52.242;20.886;2023-05-27T08:03:20;24.88;;;4.70;;
32523;SDS011;18965;52.242;20.886;2023-05-27T08:05:48;24.67;;;4.53;;
32523;SDS011;18965;52.242;20.886;2023-05-27T08:08:13;53.55;;;7.18;;
32523;SDS011;18965;52.242;20.886;2023-05-27T08:10:40;45.55;;;6.43;;
32523;SDS011;18965;52.242;20.886;2023-05-27T08:13:11;27.30;;;3.92;;
32523;SDS011;18965;52.242;20.886;2023-05-27T08:15:39;20.52;;;3.75;;
32523;SDS011;18965;52.242;20.886;2023-05-27T08:18:05;31.85;;;5.35;;
32523;SDS011;18965;52.242;20.886;2023-05-27T08:20:31;58.97;;;9.80;;
32523;SDS011;18965;52.242;20.886;2023-05-27T08:22:57;28.20;;;7.78;;
32523;SDS011;18965;52.242;20.886;2023-05-27T08:25:26;16.40;;;7.13;;
32523;SDS011;18965;52.242;20.886;2023-05-27T08:27:53;27.90;;;11.98;;
32523;SDS011;18965;52.242;20.886;2023-05-27T08:30:26;30.88;;;11.65;;
32523;SDS011;18965;52.242;20.886;2023-05-27T08:32:53;60.40;;;17.08;;
32523;SDS011;18965;52.242;20.886;2023-05-27T08:35:23;28.73;;;21.43;;
32523;SDS011;18965;52.242;20.886;2023-05-27T08:37:49;46.60;;;26.15;;
32523;SDS011;18965;52.242;20.886;2023-05-27T08:40:17;87.97;;;49.05;;
32523;SDS011;18965;52.242;20.886;2023-05-27T08:42:43;47.25;;;39.45;;
32523;SDS011;18965;52.242;20.886;2023-05-27T08:45:10;42.40;;;38.85;;
32523;SDS011;18965;52.242;20.886;2023-05-27T08:47:37;28.17;;;25.10;;
32523;SDS011;18965;52.242;20.886;2023-05-27T08:50:04;29.05;;;19.73;;
32523;SDS011;18965;52.242;20.886;2023-05-27T08:52:31;46.17;;;16.85;;
32523;SDS011;18965;52.242;20.886;2023-05-27T08:54:57;25.65;;;12.02;;
32523;SDS011;18965;52.242;20.886;2023-05-27T08:57:33;20.85;;;14.52;;
32523;SDS011;18965;52.242;20.886;2023-05-27T09:00:00;38.00;;;28.27;;
32523;SDS011;18965;52.242;20.886;2023-05-27T09:02:27;54.40;;;48.35;;
32523;SDS011;18965;52.242;20.886;2023-05-27T09:04:56;35.03;;;31.38;;
32523;SDS011;18965;52.242;20.886;2023-05-27T09:07:22;57.55;;;48.17;;
32523;SDS011;18965;52.242;20.886;2023-05-27T09:09:54;47.80;;;43.47;;
32523;SDS011;18965;52.242;20.886;2023-05-27T09:12:25;98.00;;;73.85;;
32523;SDS011;18965;52.242;20.886;2023-05-27T09:17:19;146.02;;;85.88;;
32523;SDS011;18965;52.242;20.886;2023-05-27T09:19:47;260.90;;;104.78;;
32523;SDS011;18965;52.242;20.886;2023-05-27T09:22:19;71.95;;;63.88;;
32523;SDS011;18965;52.242;20.886;2023-05-27T09:24:48;57.58;;;52.33;;
32523;SDS011;18965;52.242;20.886;2023-05-27T09:27:15;62.10;;;56.03;;
32523;SDS011;18965;52.242;20.886;2023-05-27T09:29:41;52.72;;;48.05;;
32523;SDS011;18965;52.242;20.886;2023-05-27T09:32:06;77.30;;;48.65;;
32523;SDS011;18965;52.242;20.886;2023-05-27T09:34:39;53.38;;;47.95;;
32523;SDS011;18965;52.242;20.886;2023-05-27T09:37:05;71.75;;;35.30;;
32523;SDS011;18965;52.242;20.886;2023-05-27T09:39:38;23.75;;;19.65;;
32523;SDS011;18965;52.242;20.886;2023-05-27T09:42:04;17.95;;;15.93;;
32523;SDS011;18965;52.242;20.886;2023-05-27T09:44:34;23.48;;;11.80;;
32523;SDS011;18965;52.242;20.886;2023-05-27T09:47:04;21.05;;;11.15;;
32523;SDS011;18965;52.242;20.886;2023-05-27T09:49:32;19.13;;;13.02;;
32523;SDS011;18965;52.242;20.886;2023-05-27T09:52:00;29.17;;;12.30;;
32523;SDS011;18965;52.242;20.886;2023-05-27T09:54:26;27.02;;;9.95;;
32523;SDS011;18965;52.242;20.886;2023-05-27T09:56:52;25.77;;;10.18;;
32523;SDS011;18965;52.242;20.886;2023-05-27T09:59:21;18.05;;;12.18;;
32523;SDS011;18965;52.242;20.886;2023-05-27T10:01:47;26.15;;;21.73;;
32523;SDS011;18965;52.242;20.886;2023-05-27T10:04:15;17.33;;;14.48;;
32523;SDS011;18965;52.242;20.886;2023-05-27T10:06:44;13.70;;;8.88;;
32523;SDS011;18965;52.242;20.886;2023-05-27T10:09:10;12.18;;;6.22;;
32523;SDS011;18965;52.242;20.886;2023-05-27T10:11:38;15.50;;;5.07;;
32523;SDS011;18965;52.242;20.886;2023-05-27T10:14:06;11.82;;;3.53;;
32523;SDS011;18965;52.242;20.886;2023-05-27T10:16:32;29.52;;;4.78;;
32523;SDS011;18965;52.242;20.886;2023-05-27T10:19:00;40.03;;;5.20;;
32523;SDS011;18965;52.242;20.886;2023-05-27T10:21:27;21.73;;;4.43;;
32523;SDS011;18965;52.242;20.886;2023-05-27T10:24:00;13.60;;;3.92;;
32523;SDS011;18965;52.242;20.886;2023-05-27T10:26:31;19.27;;;3.38;;
32523;SDS011;18965;52.242;20.886;2023-05-27T10:29:08;10.23;;;3.40;;
32523;SDS011;18965;52.242;20.886;2023-05-27T10:31:34;32.88;;;5.03;;
32523;SDS011;18965;52.242;20.886;2023-05-27T10:34:04;40.07;;;5.90;;
32523;SDS011;18965;52.242;20.886;2023-05-27T10:36:33;21.73;;;4.15;;
32523;SDS011;18965;52.242;20.886;2023-05-27T10:39:04;16.38;;;3.97;;
32523;SDS011;18965;52.242;20.886;2023-05-27T10:41:51;11.40;;;3.20;;
32523;SDS011;18965;52.242;20.886;2023-05-27T10:44:27;15.45;;;4.38;;
32523;SDS011;18965;52.242;20.886;2023-05-27T10:47:01;19.52;;;4.32;;
32523;SDS011;18965;52.242;20.886;2023-05-27T10:49:34;24.35;;;4.07;;
32523;SDS011;18965;52.242;20.886;2023-05-27T10:54:52;25.42;;;6.28;;
32523;SDS011;18965;52.242;20.886;2023-05-27T10:57:19;10.27;;;5.90;;
32523;SDS011;18965;52.242;20.886;2023-05-27T10:59:53;13.43;;;5.72;;
32523;SDS011;18965;52.242;20.886;2023-05-27T11:02:23;14.20;;;4.03;;
32523;SDS011;18965;52.242;20.886;2023-05-27T11:04:53;26.33;;;4.78;;
32523;SDS011;18965;52.242;20.886;2023-05-27T11:07:20;11.27;;;3.78;;
32523;SDS011;18965;52.242;20.886;2023-05-27T11:09:50;11.63;;;3.83;;
32523;SDS011;18965;52.242;20.886;2023-05-27T11:12:18;34.45;;;7.25;;
32523;SDS011;18965;52.242;20.886;2023-05-27T11:14:49;14.57;;;4.28;;
32523;SDS011;18965;52.242;20.886;2023-05-27T11:17:24;11.35;;;4.38;;
32523;SDS011;18965;52.242;20.886;2023-05-27T11:22:20;17.38;;;6.53;;
32523;SDS011;18965;52.242;20.886;2023-05-27T11:24:55;42.03;;;36.13;;
32523;SDS011;18965;52.242;20.886;2023-05-27T11:27:22;30.00;;;7.35;;
32523;SDS011;18965;52.242;20.886;2023-05-27T11:29:51;9.63;;;2.92;;
32523;SDS011;18965;52.242;20.886;2023-05-27T11:32:17;8.80;;;2.90;;
32523;SDS011;18965;52.242;20.886;2023-05-27T11:34:44;7.93;;;2.33;;
32523;SDS011;18965;52.242;20.886;2023-05-27T11:37:17;9.73;;;2.75;;
32523;SDS011;18965;52.242;20.886;2023-05-27T11:39:49;20.55;;;3.55;;
32523;SDS011;18965;52.242;20.886;2023-05-27T11:42:20;5.88;;;2.53;;
32523;SDS011;18965;52.242;20.886;2023-05-27T11:44:50;38.53;;;4.25;;
32523;SDS011;18965;52.242;20.886;2023-05-27T11:47:17;17.77;;;3.17;;
32523;SDS011;18965;52.242;20.886;2023-05-27T11:49:46;18.58;;;3.25;;
32523;SDS011;18965;52.242;20.886;2023-05-27T11:52:16;7.93;;;2.45;;
32523;SDS011;18965;52.242;20.886;2023-05-27T11:54:42;10.13;;;2.60;;
32523;SDS011;18965;52.242;20.886;2023-05-27T11:57:09;12.50;;;2.60;;
32523;SDS011;18965;52.242;20.886;2023-05-27T11:59:37;17.00;;;3.28;;
32523;SDS011;18965;52.242;20.886;2023-05-27T12:02:03;15.77;;;2.90;;
32523;SDS011;18965;52.242;20.886;2023-05-27T12:04:29;11.05;;;2.58;;
32523;SDS011;18965;52.242;20.886;2023-05-27T12:06:56;27.98;;;4.30;;
32523;SDS011;18965;52.242;20.886;2023-05-27T12:09:26;13.07;;;2.78;;
32523;SDS011;18965;52.242;20.886;2023-05-27T12:11:52;21.48;;;3.60;;
32523;SDS011;18965;52.242;20.886;2023-05-27T12:14:18;40.60;;;5.20;;
32523;SDS011;18965;52.242;20.886;2023-05-27T12:16:47;8.98;;;2.50;;
32523;SDS011;18965;52.242;20.886;2023-05-27T12:19:13;8.60;;;2.53;;
32523;SDS011;18965;52.242;20.886;2023-05-27T12:21:39;8.05;;;2.35;;
32523;SDS011;18965;52.242;20.886;2023-05-27T12:24:05;11.90;;;2.67;;
32523;SDS011;18965;52.242;20.886;2023-05-27T12:26:32;11.95;;;2.38;;
32523;SDS011;18965;52.242;20.886;2023-05-27T12:28:57;32.75;;;4.28;;
32523;SDS011;18965;52.242;20.886;2023-05-27T12:31:23;14.45;;;3.00;;
32523;SDS011;18965;52.242;20.886;2023-05-27T12:33:49;9.13;;;2.55;;
32523;SDS011;18965;52.242;20.886;2023-05-27T12:36:15;15.70;;;3.20;;
32523;SDS011;18965;52.242;20.886;2023-05-27T12:38:41;9.20;;;2.50;;
32523;SDS011;18965;52.242;20.886;2023-05-27T12:41:07;26.52;;;3.35;;
32523;SDS011;18965;52.242;20.886;2023-05-27T12:43:33;14.60;;;2.90;;
32523;SDS011;18965;52.242;20.886;2023-05-27T12:45:59;27.40;;;4.15;;
32523;SDS011;18965;52.242;20.886;2023-05-27T12:48:24;32.13;;;3.92;;
32523;SDS011;18965;52.242;20.886;2023-05-27T12:50:53;24.10;;;3.27;;
32523;SDS011;18965;52.242;20.886;2023-05-27T12:53:19;20.98;;;3.60;;
32523;SDS011;18965;52.242;20.886;2023-05-27T12:55:45;18.35;;;2.80;;
32523;SDS011;18965;52.242;20.886;2023-05-27T12:58:11;19.35;;;3.63;;
32523;SDS011;18965;52.242;20.886;2023-05-27T13:00:36;24.25;;;3.85;;
32523;SDS011;18965;52.242;20.886;2023-05-27T13:03:02;35.70;;;5.00;;
32523;SDS011;18965;52.242;20.886;2023-05-27T13:05:28;11.63;;;2.42;;
32523;SDS011;18965;52.242;20.886;2023-05-27T13:08:01;17.85;;;2.97;;
32523;SDS011;18965;52.242;20.886;2023-05-27T13:10:28;33.60;;;4.80;;
32523;SDS011;18965;52.242;20.886;2023-05-27T13:12:54;11.80;;;2.75;;
32523;SDS011;18965;52.242;20.886;2023-05-27T13:15:24;25.42;;;4.28;;
32523;SDS011;18965;52.242;20.886;2023-05-27T13:17:51;41.17;;;5.40;;
32523;SDS011;18965;52.242;20.886;2023-05-27T13:20:18;14.55;;;2.50;;
32523;SDS011;18965;52.242;20.886;2023-05-27T13:22:45;16.00;;;3.28;;
32523;SDS011;18965;52.242;20.886;2023-05-27T13:25:11;79.75;;;35.22;;
32523;SDS011;18965;52.242;20.886;2023-05-27T13:27:38;65.50;;;7.30;;
32523;SDS011;18965;52.242;20.886;2023-05-27T13:30:13;17.75;;;3.35;;
32523;SDS011;18965;52.242;20.886;2023-05-27T13:32:46;46.50;;;5.53;;
32523;SDS011;18965;52.242;20.886;2023-05-27T13:35:19;19.55;;;3.50;;
32523;SDS011;18965;52.242;20.886;2023-05-27T13:37:47;15.23;;;2.78;;
32523;SDS011;18965;52.242;20.886;2023-05-27T13:40:14;9.82;;;2.33;;
32523;SDS011;18965;52.242;20.886;2023-05-27T13:42:43;27.50;;;3.83;;
32523;SDS011;18965;52.242;20.886;2023-05-27T13:45:09;28.33;;;4.00;;
32523;SDS011;18965;52.242;20.886;2023-05-27T13:47:36;10.05;;;2.08;;
32523;SDS011;18965;52.242;20.886;2023-05-27T13:50:05;18.35;;;3.55;;
32523;SDS011;18965;52.242;20.886;2023-05-27T13:52:31;20.33;;;3.38;;
32523;SDS011;18965;52.242;20.886;2023-05-27T13:54:57;19.98;;;3.08;;
32523;SDS011;18965;52.242;20.886;2023-05-27T13:57:23;9.15;;;2.30;;
32523;SDS011;18965;52.242;20.886;2023-05-27T13:59:52;22.23;;;3.35;;
32523;SDS011;18965;52.242;20.886;2023-05-27T14:02:20;15.40;;;3.05;;
32523;SDS011;18965;52.242;20.886;2023-05-27T14:04:46;25.13;;;3.70;;
32523;SDS011;18965;52.242;20.886;2023-05-27T14:07:12;11.20;;;2.55;;
32523;SDS011;18965;52.242;20.886;2023-05-27T14:09:38;11.10;;;2.83;;
32523;SDS011;18965;52.242;20.886;2023-05-27T14:12:04;37.97;;;4.57;;
32523;SDS011;18965;52.242;20.886;2023-05-27T14:14:30;10.23;;;1.95;;
32523;SDS011;18965;52.242;20.886;2023-05-27T14:16:58;12.57;;;2.35;;
32523;SDS011;18965;52.242;20.886;2023-05-27T14:19:25;9.27;;;2.43;;
32523;SDS011;18965;52.242;20.886;2023-05-27T14:21:51;15.73;;;2.80;;
32523;SDS011;18965;52.242;20.886;2023-05-27T14:24:17;23.00;;;3.75;;
32523;SDS011;18965;52.242;20.886;2023-05-27T14:26:45;37.30;;;4.68;;
32523;SDS011;18965;52.242;20.886;2023-05-27T14:29:11;23.20;;;3.67;;
32523;SDS011;18965;52.242;20.886;2023-05-27T14:31:37;17.23;;;2.67;;
32523;SDS011;18965;52.242;20.886;2023-05-27T14:34:03;10.98;;;2.95;;